createdAt,value
2017-08-11T00:04:15.483Z,99.90
2017-08-11T00:07:14.139Z,99.90
2017-08-11T00:09:42.435Z,99.90
2017-08-11T00:12:10.678Z,99.90
2017-08-11T00:14:38.925Z,99.90
2017-08-11T00:17:07.240Z,99.90
2017-08-11T00:19:35.505Z,99.90
2017-08-11T00:22:03.737Z,99.90
2017-08-11T00:24:32.823Z,99.90
2017-08-11T00:27:01.836Z,99.90
2017-08-11T00:29:30.068Z,99.90
2017-08-11T00:31:58.320Z,99.90
2017-08-11T00:34:26.543Z,99.90
2017-08-11T00:36:55.614Z,99.90
2017-08-11T00:39:23.839Z,99.90
2017-08-11T00:41:52.062Z,99.90
2017-08-11T00:44:20.341Z,99.90
2017-08-11T00:47:14.238Z,99.90
2017-08-11T00:55:44.566Z,99.90
2017-08-11T00:58:12.828Z,99.90
2017-08-11T01:03:40.847Z,99.90
2017-08-11T01:06:09.125Z,99.90
2017-08-11T01:08:38.141Z,99.90
2017-08-11T01:11:06.446Z,99.90
2017-08-11T01:13:34.674Z,99.90
2017-08-11T01:19:03.895Z,99.90
2017-08-11T01:21:32.116Z,99.90
2017-08-11T01:24:00.359Z,99.90
2017-08-11T01:26:28.614Z,99.90
2017-08-11T01:34:57.988Z,99.90
2017-08-11T01:37:26.249Z,99.90
2017-08-11T01:39:54.500Z,99.90
2017-08-11T01:42:22.770Z,99.90
2017-08-11T01:45:14.711Z,99.90
2017-08-11T01:47:43.004Z,99.90
2017-08-11T01:50:11.994Z,99.90
2017-08-11T01:52:40.986Z,99.90
2017-08-11T01:55:10.051Z,99.90
2017-08-11T02:00:38.331Z,99.90
2017-08-11T02:03:06.555Z,99.90
2017-08-11T02:05:35.538Z,99.90
2017-08-11T02:08:04.894Z,99.90
2017-08-11T02:13:33.642Z,99.90
2017-08-11T02:16:02.744Z,99.90
2017-08-11T02:18:31.008Z,99.90
2017-08-11T02:21:00.050Z,99.90
2017-08-11T02:23:28.301Z,99.90
2017-08-11T02:28:56.594Z,99.90
2017-08-11T02:31:24.841Z,99.90
2017-08-11T02:33:53.258Z,99.90
2017-08-11T02:36:21.491Z,99.90
2017-08-11T02:41:50.096Z,99.90
2017-08-11T02:44:18.336Z,99.90
2017-08-11T02:46:46.645Z,99.90
2017-08-11T02:49:14.887Z,99.90
2017-08-11T02:51:43.133Z,99.90
2017-08-11T02:54:11.456Z,99.90
2017-08-11T02:56:39.698Z,99.90
2017-08-11T02:59:07.930Z,99.90
2017-08-11T03:01:37.011Z,99.90
2017-08-11T03:04:05.240Z,99.90
2017-08-11T03:06:33.491Z,99.90
2017-08-11T03:12:02.682Z,99.90
2017-08-11T03:14:30.925Z,99.90
2017-08-11T03:16:59.178Z,99.90
2017-08-11T03:19:27.445Z,99.90
2017-08-11T03:24:56.745Z,99.90
2017-08-11T03:27:25.783Z,99.90
2017-08-11T03:29:54.028Z,99.90
2017-08-11T03:32:22.340Z,99.90
2017-08-11T03:34:50.579Z,99.90
2017-08-11T03:37:18.825Z,99.90
2017-08-11T03:39:47.089Z,99.90
2017-08-11T03:42:15.334Z,99.90
2017-08-11T03:44:43.603Z,99.90
2017-08-11T03:47:11.834Z,99.90
2017-08-11T03:52:41.106Z,99.90
2017-08-11T03:55:09.339Z,99.90
2017-08-11T03:57:37.598Z,99.90
2017-08-11T04:00:05.891Z,99.90
2017-08-11T04:02:34.150Z,99.90
2017-08-11T04:05:16.044Z,99.90
2017-08-11T04:07:44.278Z,99.90
2017-08-11T04:10:12.521Z,99.90
2017-08-11T04:12:40.813Z,99.90
2017-08-11T04:15:09.063Z,99.90
2017-08-11T04:20:38.233Z,99.90
2017-08-11T04:23:06.477Z,99.90
2017-08-11T04:25:34.736Z,99.90
2017-08-11T04:28:02.980Z,99.90
2017-08-11T04:30:32.114Z,99.90
2017-08-11T04:33:15.000Z,99.90
2017-08-11T04:35:44.075Z,99.90
2017-08-11T04:38:12.314Z,99.90
2017-08-11T04:40:40.568Z,99.90
2017-08-11T04:43:08.875Z,99.90
2017-08-11T04:45:37.150Z,99.90
2017-08-11T04:48:05.400Z,99.90
2017-08-11T04:50:33.702Z,99.90
2017-08-11T04:53:01.952Z,99.90
2017-08-11T04:55:30.217Z,99.90
2017-08-11T04:57:58.517Z,99.90
2017-08-11T05:03:27.313Z,99.90
2017-08-11T05:05:55.582Z,99.90
2017-08-11T05:08:23.815Z,99.90
2017-08-11T05:10:52.107Z,99.90
2017-08-11T05:13:20.353Z,99.90
2017-08-11T05:15:48.582Z,99.90
2017-08-11T05:18:17.607Z,99.90
2017-08-11T05:20:46.286Z,99.90
2017-08-11T05:23:14.535Z,99.90
2017-08-11T05:25:42.766Z,99.90
2017-08-11T05:31:10.803Z,99.90
2017-08-11T05:33:39.036Z,99.90
2017-08-11T05:36:07.434Z,99.90
2017-08-11T05:38:36.418Z,99.90
2017-08-11T05:41:18.095Z,99.90
2017-08-11T05:43:46.354Z,99.90
2017-08-11T05:46:14.596Z,99.90
2017-08-11T05:48:42.903Z,99.90
2017-08-11T05:51:11.162Z,99.90
2017-08-11T05:53:39.418Z,99.90
2017-08-11T05:56:16.224Z,99.90
2017-08-11T05:58:44.470Z,99.90
2017-08-11T06:01:12.739Z,99.90
2017-08-11T06:03:41.007Z,99.90
2017-08-11T06:06:10.044Z,99.90
2017-08-11T06:08:38.293Z,99.90
2017-08-11T06:11:06.590Z,99.90
2017-08-11T06:13:34.836Z,99.90
2017-08-11T06:16:03.086Z,99.90
2017-08-11T06:18:32.184Z,99.90
2017-08-11T06:21:01.200Z,99.90
2017-08-11T06:26:29.539Z,99.90
2017-08-11T06:28:57.843Z,99.90
2017-08-11T06:31:26.088Z,99.90
2017-08-11T06:33:54.337Z,99.90
2017-08-11T06:36:22.638Z,99.90
2017-08-11T06:38:50.865Z,99.90
2017-08-11T06:41:19.098Z,99.90
2017-08-11T06:43:47.358Z,99.90
2017-08-11T06:46:15.591Z,99.90
2017-08-11T06:48:44.673Z,99.90
2017-08-11T06:54:14.106Z,99.90
2017-08-11T06:56:43.109Z,99.90
2017-08-11T07:02:12.022Z,99.90
2017-08-11T07:07:40.038Z,99.90
2017-08-11T07:10:08.274Z,99.90
2017-08-11T07:12:37.292Z,99.90
2017-08-11T07:15:05.605Z,99.90
2017-08-11T07:17:33.888Z,99.90
2017-08-11T07:23:02.158Z,99.90
2017-08-11T07:28:31.246Z,99.90
2017-08-11T07:31:16.509Z,99.90
2017-08-11T07:34:14.523Z,99.90
2017-08-11T07:36:43.968Z,99.90
2017-08-11T07:39:16.403Z,99.90
2017-08-11T07:48:14.318Z,99.90
2017-08-11T07:50:42.543Z,99.90
2017-08-11T07:53:16.810Z,99.90
2017-08-11T07:59:16.132Z,99.90
2017-08-11T08:04:44.369Z,99.90
2017-08-11T08:10:14.180Z,99.90
2017-08-11T08:12:43.199Z,99.90
2017-08-11T08:15:37.338Z,99.90
2017-08-11T08:18:18.003Z,99.90
2017-08-11T08:21:14.796Z,99.90
2017-08-11T08:26:54.262Z,99.90
2017-08-11T08:29:22.509Z,99.90
2017-08-11T08:32:16.730Z,99.90
2017-08-11T08:35:14.620Z,99.90
2017-08-11T08:44:04.259Z,99.90
2017-08-11T08:49:32.251Z,99.90
2017-08-11T08:52:00.503Z,99.90
2017-08-11T08:57:28.961Z,99.90
2017-08-11T09:06:17.884Z,99.90
2017-08-11T09:15:10.619Z,99.90
2017-08-11T09:33:06.273Z,99.90
2017-08-11T09:41:36.765Z,99.90
2017-08-11T09:47:18.380Z,99.90
2017-08-11T09:56:15.309Z,99.90
2017-08-11T10:01:48.227Z,99.90
2017-08-11T10:04:16.449Z,99.90
2017-08-11T10:06:44.733Z,99.90
2017-08-11T10:09:13.043Z,99.90
2017-08-11T10:26:50.383Z,99.90
2017-08-11T10:35:19.946Z,99.90
2017-08-11T10:40:48.606Z,99.90
2017-08-11T10:43:16.864Z,99.90
2017-08-11T10:54:46.261Z,99.90
2017-08-11T10:57:17.530Z,99.90
2017-08-11T10:59:45.837Z,99.90
2017-08-11T11:02:14.064Z,99.90
2017-08-11T11:07:43.505Z,99.90
2017-08-11T11:10:11.743Z,99.90
2017-08-11T11:12:39.978Z,99.90
2017-08-11T11:15:09.015Z,99.90
2017-08-11T11:20:38.060Z,99.90
2017-08-11T11:26:07.447Z,99.90
2017-08-11T11:28:35.678Z,99.90
2017-08-11T11:31:04.730Z,99.90
2017-08-11T11:36:34.377Z,99.90
2017-08-11T11:39:02.621Z,99.90
2017-08-11T11:41:30.849Z,99.90
2017-08-11T11:47:00.819Z,99.90
2017-08-11T11:49:29.051Z,99.90
2017-08-11T11:51:58.071Z,99.90
2017-08-11T11:54:26.363Z,99.90
2017-08-11T11:56:54.589Z,99.90
2017-08-11T12:05:14.474Z,99.90
2017-08-11T12:16:44.729Z,99.90
2017-08-11T12:19:12.953Z,99.90
2017-08-11T12:21:41.282Z,99.90
2017-08-11T12:24:09.516Z,99.90
2017-08-11T12:26:38.515Z,99.90
2017-08-11T12:29:07.573Z,99.90
2017-08-11T12:31:35.786Z,99.90
2017-08-11T12:34:04.012Z,99.90
2017-08-11T12:36:32.327Z,99.90
2017-08-11T12:39:01.322Z,99.90
2017-08-11T12:41:30.333Z,99.90
2017-08-11T12:43:58.625Z,99.90
2017-08-11T12:46:26.838Z,99.90
2017-08-11T12:51:55.379Z,99.90
2017-08-11T12:54:23.700Z,99.90
2017-08-11T12:59:53.101Z,99.90
2017-08-11T13:05:22.669Z,99.90
2017-08-11T13:07:50.903Z,99.90
2017-08-11T13:10:19.124Z,99.90
2017-08-11T13:12:47.400Z,99.90
2017-08-11T13:15:15.625Z,99.90
2017-08-11T13:17:43.850Z,99.90
2017-08-11T13:20:12.166Z,99.80
2017-08-11T13:22:40.402Z,99.90
2017-08-11T13:28:08.880Z,99.20
2017-08-11T13:30:37.150Z,99.90
2017-08-11T13:33:05.403Z,98.80
2017-08-11T13:35:33.696Z,98.50
2017-08-11T13:38:01.916Z,97.40
2017-08-11T13:40:30.171Z,96.10
2017-08-11T13:42:58.663Z,96.40
2017-08-11T13:45:27.690Z,94.80
2017-08-11T13:47:55.961Z,94.80
2017-08-11T13:50:24.254Z,94.20
2017-08-11T13:52:52.500Z,94.00
2017-08-11T13:55:21.494Z,93.10
2017-08-11T13:57:50.551Z,93.20
2017-08-11T14:00:18.783Z,93.20
2017-08-11T14:02:47.021Z,93.60
2017-08-11T14:05:16.109Z,92.80
2017-08-11T14:07:44.353Z,92.80
2017-08-11T14:10:12.600Z,92.00
2017-08-11T14:12:40.919Z,92.90
2017-08-11T14:15:09.155Z,93.50
2017-08-11T14:17:37.383Z,93.10
2017-08-11T14:20:05.701Z,92.60
2017-08-11T14:22:33.931Z,93.50
2017-08-11T14:25:02.173Z,93.60
2017-08-11T14:27:30.436Z,93.90
2017-08-11T14:29:58.719Z,93.80
2017-08-11T14:32:26.971Z,94.20
2017-08-11T14:35:15.209Z,93.20
2017-08-11T14:37:43.455Z,93.90
2017-08-11T14:40:11.759Z,91.90
2017-08-11T14:42:40.791Z,91.20
2017-08-11T14:45:09.012Z,91.20
2017-08-11T14:47:38.054Z,90.30
2017-08-11T14:50:06.353Z,90.30
2017-08-11T14:52:34.579Z,90.20
2017-08-11T14:55:16.294Z,90.30
2017-08-11T15:01:14.927Z,90.00
2017-08-11T15:03:43.159Z,90.60
2017-08-11T15:06:11.447Z,90.20
2017-08-11T15:11:40.516Z,90.70
2017-08-11T15:14:16.675Z,90.90
2017-08-11T15:17:15.266Z,90.80
2017-08-11T15:25:51.044Z,91.00
2017-08-11T15:28:19.679Z,90.70
2017-08-11T15:31:15.265Z,90.20
2017-08-11T15:39:40.946Z,92.10
2017-08-11T15:42:16.056Z,92.30
2017-08-11T15:44:45.085Z,92.50
2017-08-11T15:47:13.306Z,92.50
2017-08-11T15:49:41.596Z,93.60
2017-08-11T15:52:10.624Z,93.90
2017-08-11T15:54:39.227Z,93.80
2017-08-11T15:57:07.562Z,93.90
2017-08-11T15:59:35.798Z,95.20
2017-08-11T16:02:04.039Z,94.50
2017-08-11T16:04:32.319Z,96.20
2017-08-11T16:07:00.577Z,96.80
2017-08-11T16:09:28.903Z,95.90
2017-08-11T16:11:57.152Z,96.60
2017-08-11T16:14:25.382Z,96.60
2017-08-11T16:16:54.405Z,96.60
2017-08-11T16:19:22.703Z,96.60
2017-08-11T16:21:50.945Z,97.70
2017-08-11T16:24:19.253Z,98.70
2017-08-11T16:26:47.532Z,99.90
2017-08-11T16:29:17.000Z,99.90
2017-08-11T16:31:45.293Z,99.90
2017-08-11T16:34:13.534Z,99.90
2017-08-11T16:36:42.540Z,99.90
2017-08-11T16:39:16.616Z,99.90
2017-08-11T16:41:44.843Z,99.90
2017-08-11T16:44:13.075Z,99.90
2017-08-11T16:46:41.348Z,99.90
2017-08-11T16:49:09.764Z,99.90
2017-08-11T16:51:38.015Z,99.90
2017-08-11T16:57:07.149Z,99.90
2017-08-11T16:59:35.396Z,99.90
2017-08-11T17:02:04.416Z,99.90
2017-08-11T17:04:32.711Z,99.90
2017-08-11T18:11:58.198Z,99.90
2017-08-11T18:17:33.605Z,99.90
